sensor_id;sensor_type;location;lat;lon;timestamp;P1;durP1;ratioP1;P2;durP2;ratioP2
31818;SDS011;18384;48.860;9.188;2023-05-06T00:01:44;4.72;;;2.30;;
31818;SDS011;18384;48.860;9.188;2023-05-06T00:04:10;3.62;;;1.60;;
31818;SDS011;18384;48.860;9.188;2023-05-06T00:06:36;4.43;;;1.75;;
31818;SDS011;18384;48.860;9.188;2023-05-06T00:09:03;7.55;;;1.92;;
31818;SDS011;18384;48.860;9.188;2023-05-06T00:11:29;4.40;;;1.90;;
31818;SDS011;18384;48.860;9.188;2023-05-06T00:13:55;3.33;;;1.70;;
31818;SDS011;18384;48.860;9.188;2023-05-06T00:16:21;4.45;;;2.20;;
31818;SDS011;18384;48.860;9.188;2023-05-06T00:18:48;5.93;;;1.85;;
31818;SDS011;18384;48.860;9.188;2023-05-06T00:21:14;7.00;;;1.85;;
31818;SDS011;18384;48.860;9.188;2023-05-06T00:26:06;5.97;;;1.90;;
31818;SDS011;18384;48.860;9.188;2023-05-06T00:28:32;5.22;;;2.17;;
31818;SDS011;18384;48.860;9.188;2023-05-06T00:30:58;3.75;;;1.75;;
31818;SDS011;18384;48.860;9.188;2023-05-06T00:33:24;5.05;;;1.90;;
31818;SDS011;18384;48.860;9.188;2023-05-06T00:35:51;5.35;;;1.70;;
31818;SDS011;18384;48.860;9.188;2023-05-06T00:40:46;3.22;;;1.73;;
31818;SDS011;18384;48.860;9.188;2023-05-06T00:43:12;3.30;;;2.03;;
31818;SDS011;18384;48.860;9.188;2023-05-06T00:45:38;5.18;;;1.70;;
31818;SDS011;18384;48.860;9.188;2023-05-06T00:48:04;5.20;;;1.67;;
31818;SDS011;18384;48.860;9.188;2023-05-06T00:50:32;3.33;;;1.92;;
31818;SDS011;18384;48.860;9.188;2023-05-06T00:52:59;3.37;;;1.62;;
31818;SDS011;18384;48.860;9.188;2023-05-06T00:55:29;5.45;;;1.80;;
31818;SDS011;18384;48.860;9.188;2023-05-06T00:57:55;5.72;;;1.73;;
31818;SDS011;18384;48.860;9.188;2023-05-06T01:00:22;5.85;;;2.33;;
31818;SDS011;18384;48.860;9.188;2023-05-06T01:02:48;7.12;;;2.10;;
31818;SDS011;18384;48.860;9.188;2023-05-06T01:05:14;5.00;;;2.08;;
31818;SDS011;18384;48.860;9.188;2023-05-06T01:07:46;3.55;;;2.10;;
31818;SDS011;18384;48.860;9.188;2023-05-06T01:13:03;8.18;;;2.53;;
31818;SDS011;18384;48.860;9.188;2023-05-06T01:15:45;6.82;;;2.30;;
31818;SDS011;18384;48.860;9.188;2023-05-06T01:18:15;4.43;;;1.95;;
31818;SDS011;18384;48.860;9.188;2023-05-06T01:20:46;8.95;;;2.30;;
31818;SDS011;18384;48.860;9.188;2023-05-06T01:23:15;6.22;;;2.65;;
31818;SDS011;18384;48.860;9.188;2023-05-06T01:25:41;4.95;;;2.37;;
31818;SDS011;18384;48.860;9.188;2023-05-06T01:28:08;4.53;;;2.20;;
31818;SDS011;18384;48.860;9.188;2023-05-06T01:30:44;4.10;;;2.03;;
31818;SDS011;18384;48.860;9.188;2023-05-06T01:33:45;7.00;;;2.33;;
31818;SDS011;18384;48.860;9.188;2023-05-06T01:38:16;8.93;;;2.65;;
31818;SDS011;18384;48.860;9.188;2023-05-06T01:41:18;9.15;;;2.50;;
31818;SDS011;18384;48.860;9.188;2023-05-06T01:43:47;6.75;;;2.60;;
31818;SDS011;18384;48.860;9.188;2023-05-06T01:46:17;6.43;;;2.67;;
31818;SDS011;18384;48.860;9.188;2023-05-06T01:48:45;8.52;;;3.33;;
31818;SDS011;18384;48.860;9.188;2023-05-06T01:51:14;4.50;;;2.87;;
31818;SDS011;18384;48.860;9.188;2023-05-06T01:56:06;8.57;;;3.35;;
31818;SDS011;18384;48.860;9.188;2023-05-06T01:58:32;5.80;;;3.15;;
31818;SDS011;18384;48.860;9.188;2023-05-06T02:00:58;8.43;;;3.20;;
31818;SDS011;18384;48.860;9.188;2023-05-06T02:03:24;6.47;;;3.37;;
31818;SDS011;18384;48.860;9.188;2023-05-06T02:05:50;8.57;;;4.10;;
31818;SDS011;18384;48.860;9.188;2023-05-06T02:08:17;5.95;;;3.35;;
31818;SDS011;18384;48.860;9.188;2023-05-06T02:10:43;6.00;;;3.53;;
31818;SDS011;18384;48.860;9.188;2023-05-06T02:13:10;6.55;;;3.37;;
31818;SDS011;18384;48.860;9.188;2023-05-06T02:15:36;11.55;;;3.85;;
31818;SDS011;18384;48.860;9.188;2023-05-06T02:18:02;5.85;;;3.47;;
31818;SDS011;18384;48.860;9.188;2023-05-06T02:20:28;8.55;;;3.42;;
31818;SDS011;18384;48.860;9.188;2023-05-06T02:22:54;6.35;;;3.87;;
31818;SDS011;18384;48.860;9.188;2023-05-06T02:25:21;8.77;;;3.83;;
31818;SDS011;18384;48.860;9.188;2023-05-06T02:27:47;5.97;;;3.55;;
31818;SDS011;18384;48.860;9.188;2023-05-06T02:30:13;7.10;;;3.33;;
31818;SDS011;18384;48.860;9.188;2023-05-06T02:32:39;9.00;;;4.03;;
31818;SDS011;18384;48.860;9.188;2023-05-06T02:35:06;5.43;;;3.58;;
31818;SDS011;18384;48.860;9.188;2023-05-06T02:37:32;10.77;;;3.90;;
31818;SDS011;18384;48.860;9.188;2023-05-06T02:39:58;10.18;;;3.60;;
31818;SDS011;18384;48.860;9.188;2023-05-06T02:42:25;8.65;;;3.85;;
31818;SDS011;18384;48.860;9.188;2023-05-06T02:44:51;9.10;;;3.47;;
31818;SDS011;18384;48.860;9.188;2023-05-06T02:47:17;6.82;;;3.72;;
31818;SDS011;18384;48.860;9.188;2023-05-06T02:49:43;7.45;;;3.30;;
31818;SDS011;18384;48.860;9.188;2023-05-06T02:52:09;7.53;;;3.90;;
31818;SDS011;18384;48.860;9.188;2023-05-06T02:54:35;8.43;;;3.50;;
31818;SDS011;18384;48.860;9.188;2023-05-06T02:57:01;6.55;;;3.30;;
31818;SDS011;18384;48.860;9.188;2023-05-06T02:59:27;6.78;;;3.87;;
31818;SDS011;18384;48.860;9.188;2023-05-06T03:01:53;5.10;;;3.45;;
31818;SDS011;18384;48.860;9.188;2023-05-06T03:04:20;10.10;;;4.00;;
31818;SDS011;18384;48.860;9.188;2023-05-06T03:09:13;6.22;;;3.08;;
31818;SDS011;18384;48.860;9.188;2023-05-06T03:11:39;6.32;;;3.40;;
31818;SDS011;18384;48.860;9.188;2023-05-06T03:14:05;8.27;;;4.57;;
31818;SDS011;18384;48.860;9.188;2023-05-06T03:16:31;6.15;;;3.80;;
31818;SDS011;18384;48.860;9.188;2023-05-06T03:18:57;9.32;;;3.62;;
31818;SDS011;18384;48.860;9.188;2023-05-06T03:21:24;6.60;;;3.62;;
31818;SDS011;18384;48.860;9.188;2023-05-06T03:23:50;7.40;;;4.20;;
31818;SDS011;18384;48.860;9.188;2023-05-06T03:26:16;6.55;;;3.62;;
31818;SDS011;18384;48.860;9.188;2023-05-06T03:28:42;9.07;;;3.42;;
31818;SDS011;18384;48.860;9.188;2023-05-06T03:31:09;7.20;;;3.30;;
31818;SDS011;18384;48.860;9.188;2023-05-06T03:33:35;5.95;;;3.78;;
31818;SDS011;18384;48.860;9.188;2023-05-06T03:36:01;7.28;;;3.47;;
31818;SDS011;18384;48.860;9.188;2023-05-06T03:38:27;10.20;;;4.55;;
31818;SDS011;18384;48.860;9.188;2023-05-06T03:40:54;6.72;;;4.05;;
31818;SDS011;18384;48.860;9.188;2023-05-06T03:43:20;8.90;;;4.03;;
31818;SDS011;18384;48.860;9.188;2023-05-06T03:45:46;8.73;;;4.15;;
31818;SDS011;18384;48.860;9.188;2023-05-06T03:48:12;10.38;;;5.18;;
31818;SDS011;18384;48.860;9.188;2023-05-06T03:50:38;13.50;;;4.53;;
31818;SDS011;18384;48.860;9.188;2023-05-06T03:55:30;9.07;;;3.92;;
31818;SDS011;18384;48.860;9.188;2023-05-06T03:57:56;6.87;;;3.70;;
31818;SDS011;18384;48.860;9.188;2023-05-06T04:00:22;7.30;;;4.40;;
31818;SDS011;18384;48.860;9.188;2023-05-06T04:02:49;7.93;;;4.37;;
31818;SDS011;18384;48.860;9.188;2023-05-06T04:05:15;9.68;;;4.60;;
31818;SDS011;18384;48.860;9.188;2023-05-06T04:07:41;9.98;;;5.87;;
31818;SDS011;18384;48.860;9.188;2023-05-06T04:10:07;6.78;;;4.30;;
31818;SDS011;18384;48.860;9.188;2023-05-06T04:12:34;11.75;;;5.00;;
31818;SDS011;18384;48.860;9.188;2023-05-06T04:15:00;10.07;;;5.28;;
31818;SDS011;18384;48.860;9.188;2023-05-06T04:19:52;8.82;;;4.57;;
31818;SDS011;18384;48.860;9.188;2023-05-06T04:22:18;9.82;;;4.32;;
31818;SDS011;18384;48.860;9.188;2023-05-06T04:24:45;10.82;;;4.35;;
31818;SDS011;18384;48.860;9.188;2023-05-06T04:27:11;6.75;;;4.25;;
31818;SDS011;18384;48.860;9.188;2023-05-06T04:29:37;12.90;;;4.70;;
31818;SDS011;18384;48.860;9.188;2023-05-06T04:32:03;6.65;;;4.57;;
31818;SDS011;18384;48.860;9.188;2023-05-06T04:36:56;8.48;;;4.62;;
31818;SDS011;18384;48.860;9.188;2023-05-06T04:39:22;7.45;;;4.68;;
31818;SDS011;18384;48.860;9.188;2023-05-06T04:41:49;10.73;;;4.65;;
31818;SDS011;18384;48.860;9.188;2023-05-06T04:44:15;8.68;;;4.75;;
31818;SDS011;18384;48.860;9.188;2023-05-06T04:46:41;6.95;;;4.87;;
31818;SDS011;18384;48.860;9.188;2023-05-06T04:49:08;8.70;;;4.82;;
31818;SDS011;18384;48.860;9.188;2023-05-06T04:51:34;6.82;;;4.60;;
31818;SDS011;18384;48.860;9.188;2023-05-06T04:54:00;12.32;;;6.03;;
31818;SDS011;18384;48.860;9.188;2023-05-06T04:56:26;7.70;;;4.78;;
31818;SDS011;18384;48.860;9.188;2023-05-06T04:58:52;7.35;;;4.15;;
31818;SDS011;18384;48.860;9.188;2023-05-06T05:01:18;7.93;;;4.03;;
31818;SDS011;18384;48.860;9.188;2023-05-06T05:06:10;7.95;;;3.72;;
31818;SDS011;18384;48.860;9.188;2023-05-06T05:08:38;5.72;;;4.00;;
31818;SDS011;18384;48.860;9.188;2023-05-06T05:11:07;9.60;;;3.95;;
31818;SDS011;18384;48.860;9.188;2023-05-06T05:13:33;7.45;;;3.72;;
31818;SDS011;18384;48.860;9.188;2023-05-06T05:15:59;5.43;;;3.33;;
31818;SDS011;18384;48.860;9.188;2023-05-06T05:18:26;7.10;;;4.10;;
31818;SDS011;18384;48.860;9.188;2023-05-06T05:20:53;8.73;;;4.00;;
31818;SDS011;18384;48.860;9.188;2023-05-06T05:25:45;6.22;;;3.75;;
31818;SDS011;18384;48.860;9.188;2023-05-06T05:28:11;7.35;;;4.15;;
31818;SDS011;18384;48.860;9.188;2023-05-06T05:30:37;6.03;;;3.03;;
31818;SDS011;18384;48.860;9.188;2023-05-06T05:33:03;5.62;;;2.87;;
31818;SDS011;18384;48.860;9.188;2023-05-06T05:35:29;6.65;;;3.08;;
31818;SDS011;18384;48.860;9.188;2023-05-06T05:37:56;7.00;;;3.10;;
31818;SDS011;18384;48.860;9.188;2023-05-06T05:40:22;4.57;;;2.58;;
31818;SDS011;18384;48.860;9.188;2023-05-06T05:42:48;5.85;;;2.50;;
31818;SDS011;18384;48.860;9.188;2023-05-06T05:45:14;5.70;;;2.65;;
31818;SDS011;18384;48.860;9.188;2023-05-06T05:47:40;7.72;;;2.87;;
31818;SDS011;18384;48.860;9.188;2023-05-06T05:50:07;5.72;;;3.12;;
31818;SDS011;18384;48.860;9.188;2023-05-06T05:52:33;8.00;;;2.45;;
31818;SDS011;18384;48.860;9.188;2023-05-06T05:54:59;6.57;;;2.40;;
31818;SDS011;18384;48.860;9.188;2023-05-06T05:59:51;3.87;;;2.22;;
31818;SDS011;18384;48.860;9.188;2023-05-06T06:02:17;4.90;;;2.40;;
31818;SDS011;18384;48.860;9.188;2023-05-06T06:04:44;5.15;;;2.25;;
31818;SDS011;18384;48.860;9.188;2023-05-06T06:07:10;6.93;;;2.92;;
31818;SDS011;18384;48.860;9.188;2023-05-06T06:09:36;4.97;;;2.33;;
31818;SDS011;18384;48.860;9.188;2023-05-06T06:12:02;5.75;;;2.33;;
31818;SDS011;18384;48.860;9.188;2023-05-06T06:14:28;10.25;;;2.42;;
31818;SDS011;18384;48.860;9.188;2023-05-06T06:19:20;7.05;;;1.98;;
31818;SDS011;18384;48.860;9.188;2023-05-06T06:21:46;7.53;;;2.47;;
31818;SDS011;18384;48.860;9.188;2023-05-06T06:24:13;5.07;;;2.45;;
31818;SDS011;18384;48.860;9.188;2023-05-06T06:29:05;3.28;;;1.80;;
31818;SDS011;18384;48.860;9.188;2023-05-06T06:31:31;9.00;;;2.30;;
31818;SDS011;18384;48.860;9.188;2023-05-06T06:33:58;6.45;;;2.33;;
31818;SDS011;18384;48.860;9.188;2023-05-06T06:36:24;3.55;;;1.92;;
31818;SDS011;18384;48.860;9.188;2023-05-06T06:38:51;6.55;;;2.10;;
31818;SDS011;18384;48.860;9.188;2023-05-06T06:41:17;4.25;;;2.30;;
31818;SDS011;18384;48.860;9.188;2023-05-06T06:43:43;9.00;;;2.50;;
31818;SDS011;18384;48.860;9.188;2023-05-06T06:46:09;5.40;;;2.28;;
31818;SDS011;18384;48.860;9.188;2023-05-06T06:48:35;5.70;;;2.60;;
31818;SDS011;18384;48.860;9.188;2023-05-06T06:51:01;4.70;;;2.50;;
31818;SDS011;18384;48.860;9.188;2023-05-06T06:55:53;6.62;;;2.53;;
31818;SDS011;18384;48.860;9.188;2023-05-06T06:58:19;6.95;;;2.55;;
31818;SDS011;18384;48.860;9.188;2023-05-06T07:00:45;4.45;;;2.50;;
31818;SDS011;18384;48.860;9.188;2023-05-06T07:03:12;10.18;;;2.47;;
31818;SDS011;18384;48.860;9.188;2023-05-06T07:05:43;6.40;;;2.45;;
31818;SDS011;18384;48.860;9.188;2023-05-06T07:10:35;4.37;;;2.25;;
31818;SDS011;18384;48.860;9.188;2023-05-06T07:13:02;4.95;;;2.30;;
31818;SDS011;18384;48.860;9.188;2023-05-06T07:15:28;5.43;;;2.03;;
31818;SDS011;18384;48.860;9.188;2023-05-06T07:17:54;5.53;;;1.75;;
31818;SDS011;18384;48.860;9.188;2023-05-06T07:20:20;4.78;;;2.37;;
31818;SDS011;18384;48.860;9.188;2023-05-06T07:22:46;5.95;;;2.20;;
31818;SDS011;18384;48.860;9.188;2023-05-06T07:25:12;6.12;;;1.98;;
31818;SDS011;18384;48.860;9.188;2023-05-06T07:27:39;5.68;;;2.35;;
31818;SDS011;18384;48.860;9.188;2023-05-06T07:30:05;4.05;;;1.73;;
31818;SDS011;18384;48.860;9.188;2023-05-06T07:32:32;1.92;;;1.10;;
31818;SDS011;18384;48.860;9.188;2023-05-06T07:34:58;7.47;;;1.70;;
31818;SDS011;18384;48.860;9.188;2023-05-06T07:37:24;4.87;;;1.40;;
31818;SDS011;18384;48.860;9.188;2023-05-06T07:39:50;4.03;;;1.67;;
31818;SDS011;18384;48.860;9.188;2023-05-06T07:42:16;4.65;;;1.27;;
31818;SDS011;18384;48.860;9.188;2023-05-06T07:44:43;3.45;;;1.73;;
31818;SDS011;18384;48.860;9.188;2023-05-06T07:47:09;3.40;;;1.50;;
31818;SDS011;18384;48.860;9.188;2023-05-06T07:49:35;4.65;;;1.67;;
31818;SDS011;18384;48.860;9.188;2023-05-06T07:52:01;7.37;;;1.60;;
31818;SDS011;18384;48.860;9.188;2023-05-06T07:54:28;5.30;;;1.15;;
31818;SDS011;18384;48.860;9.188;2023-05-06T07:56:55;4.87;;;1.52;;
31818;SDS011;18384;48.860;9.188;2023-05-06T07:59:21;4.85;;;1.30;;
31818;SDS011;18384;48.860;9.188;2023-05-06T08:04:13;2.85;;;1.20;;
31818;SDS011;18384;48.860;9.188;2023-05-06T08:06:40;4.18;;;1.55;;
31818;SDS011;18384;48.860;9.188;2023-05-06T08:09:06;5.32;;;1.83;;
31818;SDS011;18384;48.860;9.188;2023-05-06T08:11:32;4.87;;;1.60;;
31818;SDS011;18384;48.860;9.188;2023-05-06T08:13:58;4.07;;;1.60;;
31818;SDS011;18384;48.860;9.188;2023-05-06T08:16:24;4.85;;;1.75;;
31818;SDS011;18384;48.860;9.188;2023-05-06T08:18:50;3.42;;;1.70;;
31818;SDS011;18384;48.860;9.188;2023-05-06T08:21:17;4.28;;;1.65;;
31818;SDS011;18384;48.860;9.188;2023-05-06T08:23:43;5.00;;;1.65;;
31818;SDS011;18384;48.860;9.188;2023-05-06T08:26:09;4.12;;;1.90;;
31818;SDS011;18384;48.860;9.188;2023-05-06T08:28:35;5.45;;;1.62;;
31818;SDS011;18384;48.860;9.188;2023-05-06T08:33:27;6.68;;;1.98;;
31818;SDS011;18384;48.860;9.188;2023-05-06T08:35:55;4.20;;;1.87;;
31818;SDS011;18384;48.860;9.188;2023-05-06T08:38:23;6.55;;;1.70;;
31818;SDS011;18384;48.860;9.188;2023-05-06T08:40:50;6.15;;;1.67;;
31818;SDS011;18384;48.860;9.188;2023-05-06T08:43:21;3.78;;;1.52;;
31818;SDS011;18384;48.860;9.188;2023-05-06T08:45:51;2.10;;;1.40;;
31818;SDS011;18384;48.860;9.188;2023-05-06T08:48:18;4.95;;;1.30;;
31818;SDS011;18384;48.860;9.188;2023-05-06T08:50:45;3.17;;;1.30;;
31818;SDS011;18384;48.860;9.188;2023-05-06T08:53:13;2.10;;;1.20;;
31818;SDS011;18384;48.860;9.188;2023-05-06T08:55:41;2.90;;;1.17;;
31818;SDS011;18384;48.860;9.188;2023-05-06T08:58:07;5.28;;;1.20;;
31818;SDS011;18384;48.860;9.188;2023-05-06T09:00:37;3.53;;;1.23;;
31818;SDS011;18384;48.860;9.188;2023-05-06T09:03:03;2.60;;;0.90;;
31818;SDS011;18384;48.860;9.188;2023-05-06T09:05:30;8.13;;;1.40;;
31818;SDS011;18384;48.860;9.188;2023-05-06T09:10:22;2.35;;;1.10;;
31818;SDS011;18384;48.860;9.188;2023-05-06T09:12:48;5.60;;;1.12;;
31818;SDS011;18384;48.860;9.188;2023-05-06T09:15:19;2.42;;;1.10;;
31818;SDS011;18384;48.860;9.188;2023-05-06T09:17:50;4.53;;;1.35;;
31818;SDS011;18384;48.860;9.188;2023-05-06T09:22:42;5.43;;;1.33;;
31818;SDS011;18384;48.860;9.188;2023-05-06T09:30:05;4.15;;;1.33;;
31818;SDS011;18384;48.860;9.188;2023-05-06T09:32:35;1.95;;;0.90;;
31818;SDS011;18384;48.860;9.188;2023-05-06T09:37:28;1.87;;;1.00;;
31818;SDS011;18384;48.860;9.188;2023-05-06T09:39:55;2.22;;;0.82;;
31818;SDS011;18384;48.860;9.188;2023-05-06T09:42:23;2.28;;;0.95;;
31818;SDS011;18384;48.860;9.188;2023-05-06T09:44:53;2.67;;;0.90;;
31818;SDS011;18384;48.860;9.188;2023-05-06T09:47:32;2.30;;;0.93;;
31818;SDS011;18384;48.860;9.188;2023-05-06T09:49:59;2.90;;;0.75;;
31818;SDS011;18384;48.860;9.188;2023-05-06T09:52:26;4.55;;;1.25;;
31818;SDS011;18384;48.860;9.188;2023-05-06T09:54:53;2.65;;;0.57;;
31818;SDS011;18384;48.860;9.188;2023-05-06T09:57:20;3.10;;;0.75;;
31818;SDS011;18384;48.860;9.188;2023-05-06T09:59:47;1.73;;;0.88;;
31818;SDS011;18384;48.860;9.188;2023-05-06T10:02:16;2.12;;;0.95;;
31818;SDS011;18384;48.860;9.188;2023-05-06T10:04:43;1.40;;;0.65;;
31818;SDS011;18384;48.860;9.188;2023-05-06T10:07:12;1.55;;;0.60;;
31818;SDS011;18384;48.860;9.188;2023-05-06T10:09:41;2.08;;;0.80;;
31818;SDS011;18384;48.860;9.188;2023-05-06T10:14:37;1.87;;;0.73;;
31818;SDS011;18384;48.860;9.188;2023-05-06T10:17:10;2.70;;;0.60;;
31818;SDS011;18384;48.860;9.188;2023-05-06T10:19:38;2.87;;;0.52;;
31818;SDS011;18384;48.860;9.188;2023-05-06T10:22:18;1.98;;;0.52;;
31818;SDS011;18384;48.860;9.188;2023-05-06T10:25:16;1.98;;;0.75;;
31818;SDS011;18384;48.860;9.188;2023-05-06T10:27:56;3.30;;;0.68;;
31818;SDS011;18384;48.860;9.188;2023-05-06T10:32:49;2.45;;;1.12;;
31818;SDS011;18384;48.860;9.188;2023-05-06T10:39:39;1.45;;;0.68;;
31818;SDS011;18384;48.860;9.188;2023-05-06T10:42:08;1.75;;;0.60;;
31818;SDS011;18384;48.860;9.188;2023-05-06T10:44:57;1.67;;;0.60;;
31818;SDS011;18384;48.860;9.188;2023-05-06T10:47:25;1.48;;;0.80;;
31818;SDS011;18384;48.860;9.188;2023-05-06T10:50:37;2.22;;;0.70;;
31818;SDS011;18384;48.860;9.188;2023-05-06T10:53:03;2.97;;;0.90;;
31818;SDS011;18384;48.860;9.188;2023-05-06T10:58:02;2.67;;;0.70;;
31818;SDS011;18384;48.860;9.188;2023-05-06T11:00:40;2.70;;;0.73;;
31818;SDS011;18384;48.860;9.188;2023-05-06T11:03:07;2.50;;;0.80;;
31818;SDS011;18384;48.860;9.188;2023-05-06T11:05:47;1.33;;;0.70;;
31818;SDS011;18384;48.860;9.188;2023-05-06T11:08:23;2.85;;;0.80;;
31818;SDS011;18384;48.860;9.188;2023-05-06T11:10:51;2.70;;;1.00;;
31818;SDS011;18384;48.860;9.188;2023-05-06T11:13:22;6.25;;;1.17;;
31818;SDS011;18384;48.860;9.188;2023-05-06T11:15:55;4.22;;;1.25;;
31818;SDS011;18384;48.860;9.188;2023-05-06T11:18:40;2.72;;;1.02;;
31818;SDS011;18384;48.860;9.188;2023-05-06T11:24:04;2.60;;;1.27;;
31818;SDS011;18384;48.860;9.188;2023-05-06T11:26:31;3.37;;;1.75;;
31818;SDS011;18384;48.860;9.188;2023-05-06T11:28:58;3.65;;;1.30;;
31818;SDS011;18384;48.860;9.188;2023-05-06T11:31:26;3.25;;;1.40;;
31818;SDS011;18384;48.860;9.188;2023-05-06T11:33:55;2.85;;;1.08;;
31818;SDS011;18384;48.860;9.188;2023-05-06T11:36:24;2.85;;;1.23;;
31818;SDS011;18384;48.860;9.188;2023-05-06T11:38:52;3.53;;;1.20;;
31818;SDS011;18384;48.860;9.188;2023-05-06T11:41:21;4.55;;;1.55;;
31818;SDS011;18384;48.860;9.188;2023-05-06T11:43:48;2.50;;;1.10;;
31818;SDS011;18384;48.860;9.188;2023-05-06T11:46:19;2.45;;;1.45;;
31818;SDS011;18384;48.860;9.188;2023-05-06T11:48:47;5.60;;;1.23;;
31818;SDS011;18384;48.860;9.188;2023-05-06T11:51:14;2.65;;;1.10;;
31818;SDS011;18384;48.860;9.188;2023-05-06T11:53:41;2.55;;;1.20;;
31818;SDS011;18384;48.860;9.188;2023-05-06T11:58:34;3.12;;;1.00;;
31818;SDS011;18384;48.860;9.188;2023-05-06T12:03:28;3.00;;;1.20;;
31818;SDS011;18384;48.860;9.188;2023-05-06T12:05:56;3.58;;;1.10;;
31818;SDS011;18384;48.860;9.188;2023-05-06T12:08:32;4.05;;;1.15;;
31818;SDS011;18384;48.860;9.188;2023-05-06T12:11:03;2.20;;;1.33;;
31818;SDS011;18384;48.860;9.188;2023-05-06T12:13:32;1.52;;;1.00;;
31818;SDS011;18384;48.860;9.188;2023-05-06T12:16:00;4.53;;;1.10;;
31818;SDS011;18384;48.860;9.188;2023-05-06T12:18:27;2.75;;;1.25;;
31818;SDS011;18384;48.860;9.188;2023-05-06T12:20:55;4.97;;;1.20;;
31818;SDS011;18384;48.860;9.188;2023-05-06T12:23:21;7.55;;;1.10;;
31818;SDS011;18384;48.860;9.188;2023-05-06T12:26:00;2.25;;;1.20;;
31818;SDS011;18384;48.860;9.188;2023-05-06T12:28:31;3.42;;;1.08;;
31818;SDS011;18384;48.860;9.188;2023-05-06T12:31:00;3.50;;;1.20;;
31818;SDS011;18384;48.860;9.188;2023-05-06T12:33:46;1.62;;;0.80;;
31818;SDS011;18384;48.860;9.188;2023-05-06T12:36:16;3.22;;;1.25;;
31818;SDS011;18384;48.860;9.188;2023-05-06T12:39:15;3.53;;;1.00;;
31818;SDS011;18384;48.860;9.188;2023-05-06T12:41:42;3.90;;;1.15;;
31818;SDS011;18384;48.860;9.188;2023-05-06T12:53:40;3.72;;;0.95;;
31818;SDS011;18384;48.860;9.188;2023-05-06T12:58:32;2.42;;;0.90;;
31818;SDS011;18384;48.860;9.188;2023-05-06T13:01:01;2.40;;;1.20;;
31818;SDS011;18384;48.860;9.188;2023-05-06T13:03:28;2.72;;;0.90;;
31818;SDS011;18384;48.860;9.188;2023-05-06T13:05:54;6.03;;;0.82;;
31818;SDS011;18384;48.860;9.188;2023-05-06T13:10:46;2.55;;;1.00;;
31818;SDS011;18384;48.860;9.188;2023-05-06T13:15:38;1.70;;;0.68;;
31818;SDS011;18384;48.860;9.188;2023-05-06T13:20:31;3.85;;;0.70;;
31818;SDS011;18384;48.860;9.188;2023-05-06T13:22:57;2.28;;;0.80;;
31818;SDS011;18384;48.860;9.188;2023-05-06T13:27:49;1.60;;;0.60;;
31818;SDS011;18384;48.860;9.188;2023-05-06T13:32:41;3.22;;;0.90;;
31818;SDS011;18384;48.860;9.188;2023-05-06T13:37:34;2.20;;;0.67;;
31818;SDS011;18384;48.860;9.188;2023-05-06T13:42:26;2.58;;;1.05;;
31818;SDS011;18384;48.860;9.188;2023-05-06T13:44:52;2.33;;;0.98;;
31818;SDS011;18384;48.860;9.188;2023-05-06T13:47:18;3.03;;;0.90;;
31818;SDS011;18384;48.860;9.188;2023-05-06T13:52:10;2.92;;;0.62;;
31818;SDS011;18384;48.860;9.188;2023-05-06T13:57:02;2.25;;;0.75;;
31818;SDS011;18384;48.860;9.188;2023-05-06T14:01:55;1.75;;;0.70;;
31818;SDS011;18384;48.860;9.188;2023-05-06T14:06:47;2.05;;;1.02;;
31818;SDS011;18384;48.860;9.188;2023-05-06T14:11:39;3.95;;;0.98;;
31818;SDS011;18384;48.860;9.188;2023-05-06T14:14:05;2.00;;;0.60;;
31818;SDS011;18384;48.860;9.188;2023-05-06T14:16:31;2.90;;;0.80;;
31818;SDS011;18384;48.860;9.188;2023-05-06T14:18:57;1.92;;;0.60;;
31818;SDS011;18384;48.860;9.188;2023-05-06T14:23:50;1.90;;;0.90;;
31818;SDS011;18384;48.860;9.188;2023-05-06T14:26:16;3.53;;;0.80;;
31818;SDS011;18384;48.860;9.188;2023-05-06T14:28:42;2.37;;;0.80;;
31818;SDS011;18384;48.860;9.188;2023-05-06T14:31:08;1.80;;;0.50;;
31818;SDS011;18384;48.860;9.188;2023-05-06T14:33:36;1.83;;;0.68;;
31818;SDS011;18384;48.860;9.188;2023-05-06T14:36:02;1.75;;;0.62;;
31818;SDS011;18384;48.860;9.188;2023-05-06T14:38:29;2.08;;;0.68;;
31818;SDS011;18384;48.860;9.188;2023-05-06T14:43:21;3.40;;;0.70;;
31818;SDS011;18384;48.860;9.188;2023-05-06T14:45:47;2.45;;;0.80;;
31818;SDS011;18384;48.860;9.188;2023-05-06T14:50:40;2.42;;;0.55;;
31818;SDS011;18384;48.860;9.188;2023-05-06T14:53:06;1.50;;;0.57;;
31818;SDS011;18384;48.860;9.188;2023-05-06T14:55:32;1.83;;;0.70;;
31818;SDS011;18384;48.860;9.188;2023-05-06T14:57:59;2.12;;;0.57;;
31818;SDS011;18384;48.860;9.188;2023-05-06T15:02:51;4.05;;;0.80;;
31818;SDS011;18384;48.860;9.188;2023-05-06T15:07:43;2.67;;;1.17;;
31818;SDS011;18384;48.860;9.188;2023-05-06T15:12:35;3.37;;;0.95;;
31818;SDS011;18384;48.860;9.188;2023-05-06T15:17:29;2.62;;;0.75;;
31818;SDS011;18384;48.860;9.188;2023-05-06T15:19:55;2.40;;;0.70;;
31818;SDS011;18384;48.860;9.188;2023-05-06T15:24:47;3.33;;;0.60;;
31818;SDS011;18384;48.860;9.188;2023-05-06T15:27:13;1.52;;;0.60;;
31818;SDS011;18384;48.860;9.188;2023-05-06T15:32:05;2.20;;;0.57;;
31818;SDS011;18384;48.860;9.188;2023-05-06T15:36:57;1.50;;;0.60;;
31818;SDS011;18384;48.860;9.188;2023-05-06T15:39:26;3.15;;;0.70;;
31818;SDS011;18384;48.860;9.188;2023-05-06T15:41:52;2.17;;;0.73;;
31818;SDS011;18384;48.860;9.188;2023-05-06T15:46:44;0.70;;;0.50;;
31818;SDS011;18384;48.860;9.188;2023-05-06T15:51:36;1.90;;;0.40;;
31818;SDS011;18384;48.860;9.188;2023-05-06T15:56:28;1.98;;;0.60;;
31818;SDS011;18384;48.860;9.188;2023-05-06T16:01:21;3.45;;;1.05;;
31818;SDS011;18384;48.860;9.188;2023-05-06T16:06:13;2.60;;;0.62;;
31818;SDS011;18384;48.860;9.188;2023-05-06T16:08:40;1.75;;;0.47;;
31818;SDS011;18384;48.860;9.188;2023-05-06T16:13:32;2.70;;;0.60;;
31818;SDS011;18384;48.860;9.188;2023-05-06T16:18:25;3.03;;;0.73;;
31818;SDS011;18384;48.860;9.188;2023-05-06T16:23:17;3.00;;;0.45;;
31818;SDS011;18384;48.860;9.188;2023-05-06T16:25:43;1.92;;;0.73;;
31818;SDS011;18384;48.860;9.188;2023-05-06T16:30:35;9.88;;;0.82;;
31818;SDS011;18384;48.860;9.188;2023-05-06T16:35:31;1.23;;;0.80;;
31818;SDS011;18384;48.860;9.188;2023-05-06T16:37:57;4.28;;;0.70;;
31818;SDS011;18384;48.860;9.188;2023-05-06T16:42:49;2.33;;;0.65;;
31818;SDS011;18384;48.860;9.188;2023-05-06T16:45:16;1.48;;;0.65;;
31818;SDS011;18384;48.860;9.188;2023-05-06T16:50:08;2.78;;;0.90;;
31818;SDS011;18384;48.860;9.188;2023-05-06T16:52:35;4.32;;;0.95;;
31818;SDS011;18384;48.860;9.188;2023-05-06T16:57:27;3.95;;;1.00;;
31818;SDS011;18384;48.860;9.188;2023-05-06T17:02:19;3.25;;;1.15;;
31818;SDS011;18384;48.860;9.188;2023-05-06T17:07:11;1.85;;;0.70;;
31818;SDS011;18384;48.860;9.188;2023-05-06T17:09:37;2.22;;;1.05;;
31818;SDS011;18384;48.860;9.188;2023-05-06T17:12:04;2.42;;;0.90;;
31818;SDS011;18384;48.860;9.188;2023-05-06T17:14:31;0.90;;;0.50;;
31818;SDS011;18384;48.860;9.188;2023-05-06T17:19:26;3.22;;;1.37;;
31818;SDS011;18384;48.860;9.188;2023-05-06T17:24:18;2.47;;;1.10;;
31818;SDS011;18384;48.860;9.188;2023-05-06T17:26:44;3.50;;;1.08;;
31818;SDS011;18384;48.860;9.188;2023-05-06T17:29:11;1.80;;;0.68;;
31818;SDS011;18384;48.860;9.188;2023-05-06T17:34:03;4.10;;;1.00;;
31818;SDS011;18384;48.860;9.188;2023-05-06T17:36:29;1.42;;;0.77;;
31818;SDS011;18384;48.860;9.188;2023-05-06T17:39:02;3.00;;;0.88;;
31818;SDS011;18384;48.860;9.188;2023-05-06T17:41:31;2.08;;;0.95;;
31818;SDS011;18384;48.860;9.188;2023-05-06T17:46:23;5.93;;;0.90;;
31818;SDS011;18384;48.860;9.188;2023-05-06T17:51:16;4.50;;;1.12;;
31818;SDS011;18384;48.860;9.188;2023-05-06T17:53:43;3.95;;;0.90;;
31818;SDS011;18384;48.860;9.188;2023-05-06T17:56:09;5.80;;;0.82;;
31818;SDS011;18384;48.860;9.188;2023-05-06T18:01:01;2.83;;;0.90;;
31818;SDS011;18384;48.860;9.188;2023-05-06T18:03:27;2.92;;;1.15;;